sensor_id;sensor_type;location;lat;lon;timestamp;pressure;altitude;pressure_sealevel;temperature;humidity
19576;BME280;41589;51.196;7.074;2022-12-01T00:02:00;99843.13;;;6.36;100.00
19576;BME280;41589;51.196;7.074;2022-12-01T00:07:00;99844.66;;;6.41;100.00
19576;BME280;41589;51.196;7.074;2022-12-01T00:12:01;99852.59;;;6.46;100.00
19576;BME280;41589;51.196;7.074;2022-12-01T00:17:01;99843.38;;;6.49;100.00
19576;BME280;41589;51.196;7.074;2022-12-01T00:22:01;99834.13;;;6.52;100.00
19576;BME280;41589;51.196;7.074;2022-12-01T00:27:02;99834.34;;;6.68;100.00
19576;BME280;41589;51.196;7.074;2022-12-01T00:32:02;99840.16;;;6.50;100.00
19576;BME280;41589;51.196;7.074;2022-12-01T00:37:03;99837.91;;;6.38;100.00
19576;BME280;41589;51.196;7.074;2022-12-01T00:42:04;99839.13;;;6.37;100.00
19576;BME280;41589;51.196;7.074;2022-12-01T00:47:04;99834.72;;;6.32;100.00
19576;BME280;41589;51.196;7.074;2022-12-01T00:52:04;99839.56;;;6.28;100.00
19576;BME280;41589;51.196;7.074;2022-12-01T00:57:05;99833.94;;;6.35;100.00
19576;BME280;41589;51.196;7.074;2022-12-01T01:02:07;99845.44;;;6.41;100.00
19576;BME280;41589;51.196;7.074;2022-12-01T01:07:07;99852.28;;;6.33;100.00
19576;BME280;41589;51.196;7.074;2022-12-01T01:12:07;99855.09;;;6.33;100.00
19576;BME280;41589;51.196;7.074;2022-12-01T01:17:08;99851.13;;;6.34;100.00
19576;BME280;41589;51.196;7.074;2022-12-01T01:22:08;99856.41;;;6.21;100.00
19576;BME280;41589;51.196;7.074;2022-12-01T01:27:08;99858.00;;;6.26;100.00
19576;BME280;41589;51.196;7.074;2022-12-01T01:32:09;99862.56;;;6.47;100.00
19576;BME280;41589;51.196;7.074;2022-12-01T01:37:09;99866.28;;;6.36;100.00
19576;BME280;41589;51.196;7.074;2022-12-01T01:42:13;99871.50;;;6.31;100.00
19576;BME280;41589;51.196;7.074;2022-12-01T01:47:16;99870.81;;;6.20;100.00
19576;BME280;41589;51.196;7.074;2022-12-01T01:52:17;99873.09;;;6.32;100.00
19576;BME280;41589;51.196;7.074;2022-12-01T01:57:30;99874.09;;;6.52;100.00
19576;BME280;41589;51.196;7.074;2022-12-01T02:02:34;99879.31;;;6.50;100.00
19576;BME280;41589;51.196;7.074;2022-12-01T02:07:40;99880.84;;;6.17;100.00
19576;BME280;41589;51.196;7.074;2022-12-01T02:14:02;99867.28;;;6.16;100.00
19576;BME280;41589;51.196;7.074;2022-12-01T02:18:37;99862.84;;;6.18;100.00
19576;BME280;41589;51.196;7.074;2022-12-01T02:24:07;99863.31;;;6.13;100.00
19576;BME280;41589;51.196;7.074;2022-12-01T02:34:29;99862.47;;;6.16;100.00
19576;BME280;41589;51.196;7.074;2022-12-01T02:39:35;99863.22;;;6.24;100.00
19576;BME280;41589;51.196;7.074;2022-12-01T02:44:39;99858.69;;;6.33;100.00
19576;BME280;41589;51.196;7.074;2022-12-01T02:49:47;99856.31;;;6.32;100.00
19576;BME280;41589;51.196;7.074;2022-12-01T02:54:48;99849.50;;;6.33;100.00
19576;BME280;41589;51.196;7.074;2022-12-01T02:59:52;99862.38;;;6.27;100.00
19576;BME280;41589;51.196;7.074;2022-12-01T03:20:56;99862.91;;;6.15;100.00
19576;BME280;41589;51.196;7.074;2022-12-01T03:26:00;99866.81;;;6.21;100.00
19576;BME280;41589;51.196;7.074;2022-12-01T03:31:05;99862.00;;;6.21;100.00
19576;BME280;41589;51.196;7.074;2022-12-01T03:36:21;99873.09;;;5.91;100.00
19576;BME280;41589;51.196;7.074;2022-12-01T03:41:28;99869.50;;;5.94;100.00
19576;BME280;41589;51.196;7.074;2022-12-01T03:46:39;99862.06;;;5.76;100.00
19576;BME280;41589;51.196;7.074;2022-12-01T03:51:50;99856.97;;;5.64;100.00
19576;BME280;41589;51.196;7.074;2022-12-01T03:57:00;99863.41;;;5.58;100.00
19576;BME280;41589;51.196;7.074;2022-12-01T04:02:06;99853.41;;;5.60;100.00
19576;BME280;41589;51.196;7.074;2022-12-01T04:07:07;99856.59;;;5.62;100.00
19576;BME280;41589;51.196;7.074;2022-12-01T04:12:13;99852.69;;;5.52;100.00
19576;BME280;41589;51.196;7.074;2022-12-01T04:17:38;99861.69;;;5.74;100.00
19576;BME280;41589;51.196;7.074;2022-12-01T04:22:38;99853.53;;;5.91;100.00
19576;BME280;41589;51.196;7.074;2022-12-01T04:27:39;99864.78;;;5.84;100.00
19576;BME280;41589;51.196;7.074;2022-12-01T04:32:42;99870.84;;;5.75;100.00
19576;BME280;41589;51.196;7.074;2022-12-01T04:37:44;99853.16;;;5.89;100.00
19576;BME280;41589;51.196;7.074;2022-12-01T04:42:45;99859.03;;;5.57;100.00
19576;BME280;41589;51.196;7.074;2022-12-01T04:47:50;99862.19;;;5.62;100.00
19576;BME280;41589;51.196;7.074;2022-12-01T04:52:54;99853.38;;;5.64;100.00
19576;BME280;41589;51.196;7.074;2022-12-01T04:57:54;99855.53;;;5.45;100.00
19576;BME280;41589;51.196;7.074;2022-12-01T05:02:58;99865.69;;;5.70;100.00
19576;BME280;41589;51.196;7.074;2022-12-01T05:07:59;99856.78;;;5.86;100.00
19576;BME280;41589;51.196;7.074;2022-12-01T05:13:00;99858.59;;;5.62;100.00
19576;BME280;41589;51.196;7.074;2022-12-01T05:18:04;99855.81;;;5.62;100.00
19576;BME280;41589;51.196;7.074;2022-12-01T05:23:06;99866.09;;;5.72;100.00
19576;BME280;41589;51.196;7.074;2022-12-01T05:28:06;99860.91;;;5.70;100.00
19576;BME280;41589;51.196;7.074;2022-12-01T05:33:10;99858.31;;;5.94;100.00
19576;BME280;41589;51.196;7.074;2022-12-01T05:38:11;99861.91;;;5.94;100.00
19576;BME280;41589;51.196;7.074;2022-12-01T05:43:11;99866.28;;;5.95;100.00
19576;BME280;41589;51.196;7.074;2022-12-01T05:48:12;99857.47;;;5.97;100.00
19576;BME280;41589;51.196;7.074;2022-12-01T05:53:16;99868.19;;;6.02;100.00
19576;BME280;41589;51.196;7.074;2022-12-01T05:58:17;99866.47;;;5.70;100.00
19576;BME280;41589;51.196;7.074;2022-12-01T06:03:21;99879.03;;;5.51;100.00
19576;BME280;41589;51.196;7.074;2022-12-01T06:08:22;99882.06;;;5.68;100.00
19576;BME280;41589;51.196;7.074;2022-12-01T06:13:22;99884.91;;;5.64;100.00
19576;BME280;41589;51.196;7.074;2022-12-01T06:18:24;99894.41;;;5.74;100.00
19576;BME280;41589;51.196;7.074;2022-12-01T06:23:24;99894.97;;;5.51;100.00
19576;BME280;41589;51.196;7.074;2022-12-01T06:28:25;99902.84;;;5.67;100.00
19576;BME280;41589;51.196;7.074;2022-12-01T06:33:25;99895.38;;;5.49;100.00
19576;BME280;41589;51.196;7.074;2022-12-01T06:38:29;99899.66;;;5.65;100.00
19576;BME280;41589;51.196;7.074;2022-12-01T06:43:30;99907.25;;;5.64;100.00
19576;BME280;41589;51.196;7.074;2022-12-01T06:48:30;99903.13;;;5.79;100.00
19576;BME280;41589;51.196;7.074;2022-12-01T06:53:30;99920.44;;;5.64;100.00
19576;BME280;41589;51.196;7.074;2022-12-01T06:58:31;99921.56;;;5.73;100.00
19576;BME280;41589;51.196;7.074;2022-12-01T07:03:31;99916.28;;;5.82;100.00
19576;BME280;41589;51.196;7.074;2022-12-01T07:08:32;99916.91;;;6.01;100.00
19576;BME280;41589;51.196;7.074;2022-12-01T07:13:33;99911.66;;;6.10;100.00
19576;BME280;41589;51.196;7.074;2022-12-01T07:18:34;99918.59;;;5.95;100.00
19576;BME280;41589;51.196;7.074;2022-12-01T07:23:36;99915.31;;;6.00;100.00
19576;BME280;41589;51.196;7.074;2022-12-01T07:28:36;99919.69;;;6.04;100.00
19576;BME280;41589;51.196;7.074;2022-12-01T07:33:37;99926.28;;;5.80;100.00
19576;BME280;41589;51.196;7.074;2022-12-01T07:38:38;99924.63;;;5.86;100.00
19576;BME280;41589;51.196;7.074;2022-12-01T07:43:39;99927.72;;;6.02;100.00
19576;BME280;41589;51.196;7.074;2022-12-01T07:48:40;99932.22;;;5.86;100.00
19576;BME280;41589;51.196;7.074;2022-12-01T07:53:41;99937.28;;;6.01;100.00
19576;BME280;41589;51.196;7.074;2022-12-01T07:58:42;99935.41;;;5.88;100.00
19576;BME280;41589;51.196;7.074;2022-12-01T08:03:50;99944.63;;;5.85;100.00
19576;BME280;41589;51.196;7.074;2022-12-01T08:08:52;99940.66;;;5.82;100.00
19576;BME280;41589;51.196;7.074;2022-12-01T08:13:52;99946.28;;;5.75;100.00
19576;BME280;41589;51.196;7.074;2022-12-01T08:18:53;99954.13;;;5.91;100.00
19576;BME280;41589;51.196;7.074;2022-12-01T08:23:56;99958.25;;;5.75;100.00
19576;BME280;41589;51.196;7.074;2022-12-01T08:28:57;99964.22;;;5.77;100.00
19576;BME280;41589;51.196;7.074;2022-12-01T08:34:03;99973.50;;;5.64;100.00
19576;BME280;41589;51.196;7.074;2022-12-01T08:39:06;99973.03;;;5.69;100.00
19576;BME280;41589;51.196;7.074;2022-12-01T08:44:09;99970.38;;;5.47;100.00
19576;BME280;41589;51.196;7.074;2022-12-01T08:49:12;99970.03;;;5.42;100.00
19576;BME280;41589;51.196;7.074;2022-12-01T08:54:12;99977.84;;;5.68;100.00
19576;BME280;41589;51.196;7.074;2022-12-01T08:59:15;99971.50;;;5.64;100.00
19576;BME280;41589;51.196;7.074;2022-12-01T09:04:18;99970.25;;;5.69;100.00
19576;BME280;41589;51.196;7.074;2022-12-01T09:09:23;99978.22;;;5.74;100.00
19576;BME280;41589;51.196;7.074;2022-12-01T09:14:24;99974.94;;;5.86;100.00
19576;BME280;41589;51.196;7.074;2022-12-01T09:19:25;99974.88;;;5.93;100.00
19576;BME280;41589;51.196;7.074;2022-12-01T09:24:27;99982.69;;;6.16;100.00
19576;BME280;41589;51.196;7.074;2022-12-01T09:29:29;99982.66;;;6.20;100.00
19576;BME280;41589;51.196;7.074;2022-12-01T09:34:30;99986.06;;;5.93;100.00
19576;BME280;41589;51.196;7.074;2022-12-01T09:39:30;99987.16;;;6.06;100.00
19576;BME280;41589;51.196;7.074;2022-12-01T09:44:50;99979.19;;;6.01;100.00
19576;BME280;41589;51.196;7.074;2022-12-01T09:54:58;99969.38;;;6.31;100.00
19576;BME280;41589;51.196;7.074;2022-12-01T10:00:03;99970.19;;;6.28;100.00
19576;BME280;41589;51.196;7.074;2022-12-01T10:05:16;99964.13;;;6.40;100.00
19576;BME280;41589;51.196;7.074;2022-12-01T10:10:30;99977.44;;;6.22;100.00
19576;BME280;41589;51.196;7.074;2022-12-01T10:15:40;99981.91;;;6.12;100.00
19576;BME280;41589;51.196;7.074;2022-12-01T10:20:47;99977.31;;;5.88;100.00
19576;BME280;41589;51.196;7.074;2022-12-01T10:25:55;99963.28;;;5.95;100.00
19576;BME280;41589;51.196;7.074;2022-12-01T10:36:23;99957.31;;;5.93;100.00
19576;BME280;41589;51.196;7.074;2022-12-01T10:41:26;99953.75;;;5.89;100.00
19576;BME280;41589;51.196;7.074;2022-12-01T10:51:28;99956.47;;;5.99;100.00
19576;BME280;41589;51.196;7.074;2022-12-01T10:56:30;99959.00;;;5.79;100.00
19576;BME280;41589;51.196;7.074;2022-12-01T11:01:31;99955.50;;;5.72;100.00
19576;BME280;41589;51.196;7.074;2022-12-01T11:06:36;99953.56;;;5.62;100.00
19576;BME280;41589;51.196;7.074;2022-12-01T11:11:38;99947.78;;;5.87;100.00
19576;BME280;41589;51.196;7.074;2022-12-01T11:16:44;99948.06;;;5.99;100.00
19576;BME280;41589;51.196;7.074;2022-12-01T11:21:52;99937.53;;;6.18;100.00
19576;BME280;41589;51.196;7.074;2022-12-01T11:26:55;99942.44;;;6.06;100.00
19576;BME280;41589;51.196;7.074;2022-12-01T11:31:56;99934.66;;;5.84;100.00
19576;BME280;41589;51.196;7.074;2022-12-01T11:37:00;99942.28;;;5.76;100.00
19576;BME280;41589;51.196;7.074;2022-12-01T11:42:05;99945.72;;;5.94;100.00
19576;BME280;41589;51.196;7.074;2022-12-01T11:47:24;99942.78;;;5.64;100.00
19576;BME280;41589;51.196;7.074;2022-12-01T11:52:30;99944.03;;;5.52;100.00
19576;BME280;41589;51.196;7.074;2022-12-01T11:57:31;99933.53;;;5.70;100.00
19576;BME280;41589;51.196;7.074;2022-12-01T12:02:41;99932.97;;;5.34;100.00
19576;BME280;41589;51.196;7.074;2022-12-01T12:13:20;99935.16;;;5.68;100.00
19576;BME280;41589;51.196;7.074;2022-12-01T12:18:55;99927.22;;;5.63;100.00
19576;BME280;41589;51.196;7.074;2022-12-01T12:40:05;99917.34;;;5.99;100.00
19576;BME280;41589;51.196;7.074;2022-12-01T12:50:33;99902.41;;;5.72;100.00
19576;BME280;41589;51.196;7.074;2022-12-01T12:55:39;99893.44;;;5.95;100.00
19576;BME280;41589;51.196;7.074;2022-12-01T13:00:49;99900.16;;;6.01;100.00
19576;BME280;41589;51.196;7.074;2022-12-01T13:06:07;99904.97;;;5.97;100.00
19576;BME280;41589;51.196;7.074;2022-12-01T13:11:14;99898.19;;;5.98;100.00
19576;BME280;41589;51.196;7.074;2022-12-01T13:16:20;99896.63;;;5.93;100.00
19576;BME280;41589;51.196;7.074;2022-12-01T13:21:23;99888.28;;;5.90;100.00
19576;BME280;41589;51.196;7.074;2022-12-01T13:26:23;99890.38;;;5.78;100.00
19576;BME280;41589;51.196;7.074;2022-12-01T13:31:24;99889.44;;;5.96;100.00
19576;BME280;41589;51.196;7.074;2022-12-01T13:36:25;99878.38;;;5.81;100.00
19576;BME280;41589;51.196;7.074;2022-12-01T13:41:32;99880.72;;;5.87;100.00
19576;BME280;41589;51.196;7.074;2022-12-01T13:57:24;99872.91;;;5.67;100.00
19576;BME280;41589;51.196;7.074;2022-12-01T14:02:30;99875.97;;;5.80;100.00
19576;BME280;41589;51.196;7.074;2022-12-01T14:07:33;99875.88;;;5.91;100.00
19576;BME280;41589;51.196;7.074;2022-12-01T14:12:34;99860.69;;;5.95;100.00
19576;BME280;41589;51.196;7.074;2022-12-01T14:17:37;99873.06;;;5.94;100.00
19576;BME280;41589;51.196;7.074;2022-12-01T14:22:43;99874.06;;;5.70;100.00
19576;BME280;41589;51.196;7.074;2022-12-01T14:27:46;99867.25;;;5.74;100.00
19576;BME280;41589;51.196;7.074;2022-12-01T14:32:47;99875.59;;;5.78;100.00
19576;BME280;41589;51.196;7.074;2022-12-01T14:37:48;99867.28;;;5.71;100.00
19576;BME280;41589;51.196;7.074;2022-12-01T14:42:51;99867.22;;;5.78;100.00
19576;BME280;41589;51.196;7.074;2022-12-01T14:48:16;99861.63;;;5.81;100.00
19576;BME280;41589;51.196;7.074;2022-12-01T14:58:25;99863.22;;;5.79;100.00
19576;BME280;41589;51.196;7.074;2022-12-01T15:03:32;99868.00;;;5.82;100.00
19576;BME280;41589;51.196;7.074;2022-12-01T15:08:36;99870.38;;;5.84;100.00
19576;BME280;41589;51.196;7.074;2022-12-01T15:13:48;99864.69;;;5.94;100.00
19576;BME280;41589;51.196;7.074;2022-12-01T15:18:50;99866.38;;;5.85;100.00
19576;BME280;41589;51.196;7.074;2022-12-01T15:23:59;99865.34;;;6.09;100.00
19576;BME280;41589;51.196;7.074;2022-12-01T15:29:24;99872.19;;;6.04;100.00
19576;BME280;41589;51.196;7.074;2022-12-01T15:34:35;99867.69;;;5.69;100.00
19576;BME280;41589;51.196;7.074;2022-12-01T15:39:41;99882.34;;;5.84;100.00
19576;BME280;41589;51.196;7.074;2022-12-01T15:44:43;99879.69;;;5.66;100.00
19576;BME280;41589;51.196;7.074;2022-12-01T15:49:47;99895.44;;;5.39;100.00
19576;BME280;41589;51.196;7.074;2022-12-01T15:54:48;99900.19;;;5.45;100.00
19576;BME280;41589;51.196;7.074;2022-12-01T15:59:54;99915.06;;;5.32;100.00
19576;BME280;41589;51.196;7.074;2022-12-01T16:10:04;99899.16;;;5.21;100.00
19576;BME280;41589;51.196;7.074;2022-12-01T16:15:14;99888.72;;;5.29;100.00
19576;BME280;41589;51.196;7.074;2022-12-01T16:20:32;99884.28;;;5.42;100.00
19576;BME280;41589;51.196;7.074;2022-12-01T16:25:36;99879.84;;;5.45;100.00
19576;BME280;41589;51.196;7.074;2022-12-01T16:30:38;99868.66;;;5.52;100.00
19576;BME280;41589;51.196;7.074;2022-12-01T16:35:38;99860.88;;;5.74;100.00
19576;BME280;41589;51.196;7.074;2022-12-01T16:40:43;99862.19;;;5.62;100.00
19576;BME280;41589;51.196;7.074;2022-12-01T16:45:44;99855.47;;;5.52;100.00
19576;BME280;41589;51.196;7.074;2022-12-01T16:50:49;99866.28;;;5.50;100.00
19576;BME280;41589;51.196;7.074;2022-12-01T16:55:53;99868.16;;;5.64;100.00
19576;BME280;41589;51.196;7.074;2022-12-01T17:00:54;99870.91;;;5.68;100.00
19576;BME280;41589;51.196;7.074;2022-12-01T17:05:55;99875.53;;;5.37;100.00
19576;BME280;41589;51.196;7.074;2022-12-01T17:10:58;99883.84;;;5.44;100.00
19576;BME280;41589;51.196;7.074;2022-12-01T17:16:03;99884.28;;;5.39;100.00
19576;BME280;41589;51.196;7.074;2022-12-01T17:21:09;99889.56;;;5.26;100.00
19576;BME280;41589;51.196;7.074;2022-12-01T17:26:13;99893.00;;;5.48;100.00
19576;BME280;41589;51.196;7.074;2022-12-01T17:31:14;99881.16;;;5.30;100.00
19576;BME280;41589;51.196;7.074;2022-12-01T17:36:15;99889.25;;;5.10;100.00
19576;BME280;41589;51.196;7.074;2022-12-01T17:41:18;99888.84;;;5.08;100.00
19576;BME280;41589;51.196;7.074;2022-12-01T17:46:21;99890.78;;;5.21;100.00
19576;BME280;41589;51.196;7.074;2022-12-01T17:51:22;99882.28;;;5.39;100.00
19576;BME280;41589;51.196;7.074;2022-12-01T17:56:22;99884.31;;;5.35;100.00
19576;BME280;41589;51.196;7.074;2022-12-01T18:01:23;99886.28;;;5.42;100.00
19576;BME280;41589;51.196;7.074;2022-12-01T18:06:23;99894.69;;;5.35;100.00
19576;BME280;41589;51.196;7.074;2022-12-01T18:11:24;99899.13;;;5.25;100.00
19576;BME280;41589;51.196;7.074;2022-12-01T18:16:29;99894.38;;;5.18;100.00
19576;BME280;41589;51.196;7.074;2022-12-01T18:21:29;99906.84;;;5.00;100.00
19576;BME280;41589;51.196;7.074;2022-12-01T18:26:31;99904.59;;;4.66;100.00
19576;BME280;41589;51.196;7.074;2022-12-01T18:31:33;99898.59;;;4.71;100.00
19576;BME280;41589;51.196;7.074;2022-12-01T18:36:35;99899.00;;;4.70;100.00
19576;BME280;41589;51.196;7.074;2022-12-01T18:41:38;99909.25;;;5.01;100.00
19576;BME280;41589;51.196;7.074;2022-12-01T18:46:40;99908.50;;;4.86;100.00
19576;BME280;41589;51.196;7.074;2022-12-01T18:51:41;99910.84;;;4.95;100.00
19576;BME280;41589;51.196;7.074;2022-12-01T18:56:42;99910.16;;;4.66;100.00
19576;BME280;41589;51.196;7.074;2022-12-01T19:01:43;99902.63;;;4.59;100.00
19576;BME280;41589;51.196;7.074;2022-12-01T19:06:47;99895.84;;;4.60;100.00
19576;BME280;41589;51.196;7.074;2022-12-01T19:11:48;99904.63;;;4.59;100.00
19576;BME280;41589;51.196;7.074;2022-12-01T19:16:49;99896.63;;;4.64;100.00
19576;BME280;41589;51.196;7.074;2022-12-01T19:21:50;99887.13;;;4.51;100.00
19576;BME280;41589;51.196;7.074;2022-12-01T19:26:53;99894.31;;;4.49;100.00
19576;BME280;41589;51.196;7.074;2022-12-01T19:31:55;99892.72;;;4.48;100.00
19576;BME280;41589;51.196;7.074;2022-12-01T19:36:56;99894.38;;;4.20;100.00
19576;BME280;41589;51.196;7.074;2022-12-01T19:41:56;99897.16;;;4.27;100.00
19576;BME280;41589;51.196;7.074;2022-12-01T19:46:57;99900.72;;;4.28;100.00
19576;BME280;41589;51.196;7.074;2022-12-01T19:51:57;99896.75;;;4.29;100.00
19576;BME280;41589;51.196;7.074;2022-12-01T19:56:58;99899.94;;;4.27;100.00
19576;BME280;41589;51.196;7.074;2022-12-01T20:01:59;99910.31;;;3.91;100.00
19576;BME280;41589;51.196;7.074;2022-12-01T20:07:02;99905.50;;;3.70;100.00
19576;BME280;41589;51.196;7.074;2022-12-01T20:12:03;99894.38;;;3.85;100.00
19576;BME280;41589;51.196;7.074;2022-12-01T20:17:04;99891.97;;;3.83;100.00
19576;BME280;41589;51.196;7.074;2022-12-01T20:22:07;99890.00;;;3.87;100.00
19576;BME280;41589;51.196;7.074;2022-12-01T20:27:08;99895.97;;;3.78;100.00
19576;BME280;41589;51.196;7.074;2022-12-01T20:32:12;99889.59;;;4.03;100.00
19576;BME280;41589;51.196;7.074;2022-12-01T20:37:12;99893.97;;;3.90;100.00
19576;BME280;41589;51.196;7.074;2022-12-01T20:42:15;99896.75;;;3.90;100.00
19576;BME280;41589;51.196;7.074;2022-12-01T20:47:21;99884.44;;;3.80;100.00
19576;BME280;41589;51.196;7.074;2022-12-01T20:52:22;99890.41;;;3.64;100.00
19576;BME280;41589;51.196;7.074;2022-12-01T20:57:22;99886.41;;;3.62;100.00
19576;BME280;41589;51.196;7.074;2022-12-01T21:02:25;99892.00;;;3.79;100.00
19576;BME280;41589;51.196;7.074;2022-12-01T21:07:28;99890.38;;;3.71;100.00
19576;BME280;41589;51.196;7.074;2022-12-01T21:12:32;99888.41;;;3.79;100.00
19576;BME280;41589;51.196;7.074;2022-12-01T21:18:01;99887.19;;;3.51;100.00
19576;BME280;41589;51.196;7.074;2022-12-01T21:23:08;99883.25;;;3.74;100.00
19576;BME280;41589;51.196;7.074;2022-12-01T21:28:30;99878.44;;;3.82;100.00
19576;BME280;41589;51.196;7.074;2022-12-01T21:33:34;99877.69;;;3.99;100.00
19576;BME280;41589;51.196;7.074;2022-12-01T21:38:36;99878.44;;;3.82;100.00
19576;BME280;41589;51.196;7.074;2022-12-01T21:43:39;99871.31;;;3.91;100.00
19576;BME280;41589;51.196;7.074;2022-12-01T21:48:43;99877.66;;;3.60;100.00
19576;BME280;41589;51.196;7.074;2022-12-01T21:53:46;99857.38;;;3.52;100.00
19576;BME280;41589;51.196;7.074;2022-12-01T21:58:48;99862.94;;;3.70;100.00
19576;BME280;41589;51.196;7.074;2022-12-01T22:03:48;99863.34;;;3.75;100.00
19576;BME280;41589;51.196;7.074;2022-12-01T22:08:51;99861.75;;;3.82;100.00
19576;BME280;41589;51.196;7.074;2022-12-01T22:19:01;99847.84;;;3.67;100.00
19576;BME280;41589;51.196;7.074;2022-12-01T22:29:27;99836.31;;;3.65;100.00
19576;BME280;41589;51.196;7.074;2022-12-01T22:34:28;99831.91;;;3.82;100.00
19576;BME280;41589;51.196;7.074;2022-12-01T22:39:29;99829.91;;;3.90;100.00
19576;BME280;41589;51.196;7.074;2022-12-01T22:44:32;99814.00;;;3.79;100.00
19576;BME280;41589;51.196;7.074;2022-12-01T22:49:32;99828.31;;;3.82;100.00
19576;BME280;41589;51.196;7.074;2022-12-01T22:54:36;99824.00;;;3.63;100.00
19576;BME280;41589;51.196;7.074;2022-12-01T22:59:41;99830.31;;;3.70;100.00
19576;BME280;41589;51.196;7.074;2022-12-01T23:04:42;99838.69;;;3.63;100.00
19576;BME280;41589;51.196;7.074;2022-12-01T23:09:44;99838.31;;;3.33;100.00
19576;BME280;41589;51.196;7.074;2022-12-01T23:14:47;99827.56;;;3.42;100.00
19576;BME280;41589;51.196;7.074;2022-12-01T23:19:49;99831.94;;;3.50;100.00
19576;BME280;41589;51.196;7.074;2022-12-01T23:24:50;99823.19;;;3.59;100.00
19576;BME280;41589;51.196;7.074;2022-12-01T23:29:51;99814.03;;;3.76;100.00
19576;BME280;41589;51.196;7.074;2022-12-01T23:34:51;99813.63;;;3.60;100.00
19576;BME280;41589;51.196;7.074;2022-12-01T23:39:51;99812.84;;;3.73;100.00
19576;BME280;41589;51.196;7.074;2022-12-01T23:44:52;99800.91;;;3.66;100.00
19576;BME280;41589;51.196;7.074;2022-12-01T23:49:58;99788.97;;;3.62;100.00
19576;BME280;41589;51.196;7.074;2022-12-01T23:55:00;99798.09;;;3.84;100.00
